sensor_id;sensor_type;location;lat;lon;timestamp;P1;durP1;ratioP1;P2;durP2;ratioP2
14348;SDS011;7258;50.376;8.742;2022-10-22T00:01:41;24.45;;;20.30;;
14348;SDS011;7258;50.376;8.742;2022-10-22T00:03:43;28.60;;;21.33;;
14348;SDS011;7258;50.376;8.742;2022-10-22T00:05:47;29.60;;;20.98;;
14348;SDS011;7258;50.376;8.742;2022-10-22T00:07:50;24.65;;;20.65;;
14348;SDS011;7258;50.376;8.742;2022-10-22T00:09:52;30.17;;;21.65;;
14348;SDS011;7258;50.376;8.742;2022-10-22T00:11:55;27.27;;;20.23;;
14348;SDS011;7258;50.376;8.742;2022-10-22T00:13:58;31.95;;;21.55;;
14348;SDS011;7258;50.376;8.742;2022-10-22T00:16:00;27.35;;;20.33;;
14348;SDS011;7258;50.376;8.742;2022-10-22T00:18:05;25.90;;;19.48;;
14348;SDS011;7258;50.376;8.742;2022-10-22T00:20:09;28.65;;;20.90;;
14348;SDS011;7258;50.376;8.742;2022-10-22T00:22:12;26.08;;;20.65;;
14348;SDS011;7258;50.376;8.742;2022-10-22T00:24:15;24.60;;;20.63;;
14348;SDS011;7258;50.376;8.742;2022-10-22T00:26:18;24.30;;;20.02;;
14348;SDS011;7258;50.376;8.742;2022-10-22T00:28:20;25.90;;;19.25;;
14348;SDS011;7258;50.376;8.742;2022-10-22T00:30:22;21.45;;;17.83;;
14348;SDS011;7258;50.376;8.742;2022-10-22T00:32:25;21.38;;;17.70;;
14348;SDS011;7258;50.376;8.742;2022-10-22T00:34:29;30.70;;;19.13;;
14348;SDS011;7258;50.376;8.742;2022-10-22T00:36:32;26.85;;;20.45;;
14348;SDS011;7258;50.376;8.742;2022-10-22T00:38:35;22.52;;;18.40;;
14348;SDS011;7258;50.376;8.742;2022-10-22T00:40:38;27.55;;;20.52;;
14348;SDS011;7258;50.376;8.742;2022-10-22T00:42:41;29.10;;;20.00;;
14348;SDS011;7258;50.376;8.742;2022-10-22T00:45:00;24.85;;;19.15;;
14348;SDS011;7258;50.376;8.742;2022-10-22T00:47:08;21.95;;;18.88;;
14348;SDS011;7258;50.376;8.742;2022-10-22T00:49:11;25.20;;;18.58;;
14348;SDS011;7258;50.376;8.742;2022-10-22T00:51:15;22.40;;;18.20;;
14348;SDS011;7258;50.376;8.742;2022-10-22T00:53:20;20.90;;;18.17;;
14348;SDS011;7258;50.376;8.742;2022-10-22T00:55:26;25.80;;;19.02;;
14348;SDS011;7258;50.376;8.742;2022-10-22T00:57:30;26.23;;;19.02;;
14348;SDS011;7258;50.376;8.742;2022-10-22T00:59:33;22.83;;;19.05;;
14348;SDS011;7258;50.376;8.742;2022-10-22T01:01:37;22.48;;;18.27;;
14348;SDS011;7258;50.376;8.742;2022-10-22T01:03:40;21.88;;;18.75;;
14348;SDS011;7258;50.376;8.742;2022-10-22T01:05:43;24.83;;;18.58;;
14348;SDS011;7258;50.376;8.742;2022-10-22T01:07:54;23.13;;;17.75;;
14348;SDS011;7258;50.376;8.742;2022-10-22T01:09:59;23.35;;;17.48;;
14348;SDS011;7258;50.376;8.742;2022-10-22T01:12:08;22.33;;;18.00;;
14348;SDS011;7258;50.376;8.742;2022-10-22T01:14:20;22.60;;;17.75;;
14348;SDS011;7258;50.376;8.742;2022-10-22T01:16:31;22.00;;;17.27;;
14348;SDS011;7258;50.376;8.742;2022-10-22T01:18:42;20.83;;;17.65;;
14348;SDS011;7258;50.376;8.742;2022-10-22T01:20:59;21.80;;;18.02;;
14348;SDS011;7258;50.376;8.742;2022-10-22T01:23:37;23.35;;;18.60;;
14348;SDS011;7258;50.376;8.742;2022-10-22T01:26:08;24.00;;;18.77;;
14348;SDS011;7258;50.376;8.742;2022-10-22T01:28:21;25.05;;;18.60;;
14348;SDS011;7258;50.376;8.742;2022-10-22T01:30:34;23.50;;;18.63;;
14348;SDS011;7258;50.376;8.742;2022-10-22T01:32:40;25.35;;;17.95;;
14348;SDS011;7258;50.376;8.742;2022-10-22T01:34:47;22.38;;;18.45;;
14348;SDS011;7258;50.376;8.742;2022-10-22T01:36:53;24.55;;;18.58;;
14348;SDS011;7258;50.376;8.742;2022-10-22T01:38:57;24.77;;;18.90;;
14348;SDS011;7258;50.376;8.742;2022-10-22T01:41:01;25.10;;;17.77;;
14348;SDS011;7258;50.376;8.742;2022-10-22T01:43:05;24.52;;;17.48;;
14348;SDS011;7258;50.376;8.742;2022-10-22T01:45:10;23.95;;;18.33;;
14348;SDS011;7258;50.376;8.742;2022-10-22T01:47:16;22.88;;;17.45;;
14348;SDS011;7258;50.376;8.742;2022-10-22T01:49:26;26.27;;;18.00;;
14348;SDS011;7258;50.376;8.742;2022-10-22T01:51:48;22.40;;;17.88;;
14348;SDS011;7258;50.376;8.742;2022-10-22T01:54:02;22.85;;;16.55;;
14348;SDS011;7258;50.376;8.742;2022-10-22T01:56:15;20.20;;;17.13;;
14348;SDS011;7258;50.376;8.742;2022-10-22T01:58:29;24.58;;;17.33;;
14348;SDS011;7258;50.376;8.742;2022-10-22T02:00:43;21.48;;;16.90;;
14348;SDS011;7258;50.376;8.742;2022-10-22T02:02:53;18.42;;;16.40;;
14348;SDS011;7258;50.376;8.742;2022-10-22T02:05:00;24.90;;;17.80;;
14348;SDS011;7258;50.376;8.742;2022-10-22T02:07:09;20.15;;;16.52;;
14348;SDS011;7258;50.376;8.742;2022-10-22T02:09:15;22.40;;;18.15;;
14348;SDS011;7258;50.376;8.742;2022-10-22T02:11:21;21.27;;;14.88;;
14348;SDS011;7258;50.376;8.742;2022-10-22T02:13:24;26.92;;;18.55;;
14348;SDS011;7258;50.376;8.742;2022-10-22T02:15:30;32.67;;;23.13;;
14348;SDS011;7258;50.376;8.742;2022-10-22T02:17:36;40.45;;;26.05;;
14348;SDS011;7258;50.376;8.742;2022-10-22T02:19:43;46.67;;;28.70;;
14348;SDS011;7258;50.376;8.742;2022-10-22T02:21:49;54.42;;;28.42;;
14348;SDS011;7258;50.376;8.742;2022-10-22T02:23:52;48.72;;;27.17;;
14348;SDS011;7258;50.376;8.742;2022-10-22T02:25:57;48.03;;;26.33;;
14348;SDS011;7258;50.376;8.742;2022-10-22T02:28:08;23.17;;;14.80;;
14348;SDS011;7258;50.376;8.742;2022-10-22T02:30:17;19.90;;;11.65;;
14348;SDS011;7258;50.376;8.742;2022-10-22T02:32:22;16.50;;;10.57;;
14348;SDS011;7258;50.376;8.742;2022-10-22T02:34:29;14.07;;;9.38;;
14348;SDS011;7258;50.376;8.742;2022-10-22T02:36:34;12.05;;;8.57;;
14348;SDS011;7258;50.376;8.742;2022-10-22T02:38:39;12.85;;;8.77;;
14348;SDS011;7258;50.376;8.742;2022-10-22T02:40:43;11.30;;;7.55;;
14348;SDS011;7258;50.376;8.742;2022-10-22T02:42:46;8.88;;;7.22;;
14348;SDS011;7258;50.376;8.742;2022-10-22T02:44:50;12.35;;;8.60;;
14348;SDS011;7258;50.376;8.742;2022-10-22T02:46:53;13.52;;;8.10;;
14348;SDS011;7258;50.376;8.742;2022-10-22T02:48:56;9.77;;;7.82;;
14348;SDS011;7258;50.376;8.742;2022-10-22T02:50:59;11.10;;;8.13;;
14348;SDS011;7258;50.376;8.742;2022-10-22T02:53:03;14.30;;;9.48;;
14348;SDS011;7258;50.376;8.742;2022-10-22T02:55:06;22.50;;;13.30;;
14348;SDS011;7258;50.376;8.742;2022-10-22T02:57:09;30.35;;;16.50;;
14348;SDS011;7258;50.376;8.742;2022-10-22T02:59:12;28.85;;;15.80;;
14348;SDS011;7258;50.376;8.742;2022-10-22T03:01:15;33.80;;;15.88;;
14348;SDS011;7258;50.376;8.742;2022-10-22T03:03:18;27.60;;;16.08;;
14348;SDS011;7258;50.376;8.742;2022-10-22T03:05:21;32.20;;;16.75;;
14348;SDS011;7258;50.376;8.742;2022-10-22T03:07:24;33.58;;;17.83;;
14348;SDS011;7258;50.376;8.742;2022-10-22T03:09:28;32.30;;;17.88;;
14348;SDS011;7258;50.376;8.742;2022-10-22T03:11:31;40.67;;;20.00;;
14348;SDS011;7258;50.376;8.742;2022-10-22T03:13:34;43.47;;;22.60;;
14348;SDS011;7258;50.376;8.742;2022-10-22T03:15:37;50.35;;;24.75;;
14348;SDS011;7258;50.376;8.742;2022-10-22T03:17:39;51.05;;;25.35;;
14348;SDS011;7258;50.376;8.742;2022-10-22T03:19:43;46.63;;;24.23;;
14348;SDS011;7258;50.376;8.742;2022-10-22T03:21:47;55.45;;;26.88;;
14348;SDS011;7258;50.376;8.742;2022-10-22T03:23:51;63.38;;;29.50;;
14348;SDS011;7258;50.376;8.742;2022-10-22T03:25:56;55.60;;;29.05;;
14348;SDS011;7258;50.376;8.742;2022-10-22T03:28:05;63.17;;;30.23;;
14348;SDS011;7258;50.376;8.742;2022-10-22T03:30:10;56.92;;;28.77;;
14348;SDS011;7258;50.376;8.742;2022-10-22T03:32:13;53.33;;;27.50;;
14348;SDS011;7258;50.376;8.742;2022-10-22T03:34:16;51.55;;;25.40;;
14348;SDS011;7258;50.376;8.742;2022-10-22T03:36:19;45.00;;;24.17;;
14348;SDS011;7258;50.376;8.742;2022-10-22T03:38:22;38.72;;;22.17;;
14348;SDS011;7258;50.376;8.742;2022-10-22T03:40:25;35.22;;;20.75;;
14348;SDS011;7258;50.376;8.742;2022-10-22T03:42:29;38.42;;;20.27;;
14348;SDS011;7258;50.376;8.742;2022-10-22T03:44:32;35.97;;;19.73;;
14348;SDS011;7258;50.376;8.742;2022-10-22T03:46:37;35.65;;;20.38;;
14348;SDS011;7258;50.376;8.742;2022-10-22T03:48:40;33.00;;;19.92;;
14348;SDS011;7258;50.376;8.742;2022-10-22T03:50:43;32.25;;;20.33;;
14348;SDS011;7258;50.376;8.742;2022-10-22T03:52:46;41.92;;;22.15;;
14348;SDS011;7258;50.376;8.742;2022-10-22T03:54:49;41.22;;;23.83;;
14348;SDS011;7258;50.376;8.742;2022-10-22T03:56:52;53.83;;;26.20;;
14348;SDS011;7258;50.376;8.742;2022-10-22T03:58:56;57.88;;;28.30;;
14348;SDS011;7258;50.376;8.742;2022-10-22T04:01:03;58.03;;;29.67;;
14348;SDS011;7258;50.376;8.742;2022-10-22T04:03:06;60.72;;;29.80;;
14348;SDS011;7258;50.376;8.742;2022-10-22T04:05:09;63.67;;;30.58;;
14348;SDS011;7258;50.376;8.742;2022-10-22T04:07:12;61.63;;;28.98;;
14348;SDS011;7258;50.376;8.742;2022-10-22T04:09:14;90.13;;;32.75;;
14348;SDS011;7258;50.376;8.742;2022-10-22T04:11:17;51.50;;;27.55;;
14348;SDS011;7258;50.376;8.742;2022-10-22T04:13:20;62.70;;;29.38;;
14348;SDS011;7258;50.376;8.742;2022-10-22T04:15:24;65.38;;;30.58;;
14348;SDS011;7258;50.376;8.742;2022-10-22T04:17:31;63.75;;;30.42;;
14348;SDS011;7258;50.376;8.742;2022-10-22T04:19:35;63.60;;;29.05;;
14348;SDS011;7258;50.376;8.742;2022-10-22T04:21:38;67.50;;;30.20;;
14348;SDS011;7258;50.376;8.742;2022-10-22T04:23:43;69.22;;;30.65;;
14348;SDS011;7258;50.376;8.742;2022-10-22T04:25:46;59.53;;;29.58;;
14348;SDS011;7258;50.376;8.742;2022-10-22T04:27:49;83.50;;;33.92;;
14348;SDS011;7258;50.376;8.742;2022-10-22T04:29:52;79.03;;;34.63;;
14348;SDS011;7258;50.376;8.742;2022-10-22T04:31:56;81.68;;;34.10;;
14348;SDS011;7258;50.376;8.742;2022-10-22T04:33:59;69.88;;;31.63;;
14348;SDS011;7258;50.376;8.742;2022-10-22T04:36:06;77.80;;;34.20;;
14348;SDS011;7258;50.376;8.742;2022-10-22T04:38:11;78.25;;;34.13;;
14348;SDS011;7258;50.376;8.742;2022-10-22T04:40:14;86.40;;;36.03;;
14348;SDS011;7258;50.376;8.742;2022-10-22T04:42:17;77.78;;;33.65;;
14348;SDS011;7258;50.376;8.742;2022-10-22T04:44:20;92.32;;;36.08;;
14348;SDS011;7258;50.376;8.742;2022-10-22T04:46:23;73.07;;;33.60;;
14348;SDS011;7258;50.376;8.742;2022-10-22T04:48:29;85.57;;;35.42;;
14348;SDS011;7258;50.376;8.742;2022-10-22T04:50:32;77.18;;;33.90;;
14348;SDS011;7258;50.376;8.742;2022-10-22T04:52:34;79.10;;;32.95;;
14348;SDS011;7258;50.376;8.742;2022-10-22T04:54:37;72.03;;;30.73;;
14348;SDS011;7258;50.376;8.742;2022-10-22T04:56:40;60.33;;;27.75;;
14348;SDS011;7258;50.376;8.742;2022-10-22T04:58:43;57.00;;;26.10;;
14348;SDS011;7258;50.376;8.742;2022-10-22T05:00:45;49.15;;;23.25;;
14348;SDS011;7258;50.376;8.742;2022-10-22T05:02:49;46.95;;;22.05;;
14348;SDS011;7258;50.376;8.742;2022-10-22T05:04:53;35.88;;;19.23;;
14348;SDS011;7258;50.376;8.742;2022-10-22T05:06:55;41.65;;;18.17;;
14348;SDS011;7258;50.376;8.742;2022-10-22T05:08:59;35.67;;;17.10;;
14348;SDS011;7258;50.376;8.742;2022-10-22T05:11:09;31.70;;;16.70;;
14348;SDS011;7258;50.376;8.742;2022-10-22T05:13:13;38.28;;;17.75;;
14348;SDS011;7258;50.376;8.742;2022-10-22T05:15:16;31.77;;;16.70;;
14348;SDS011;7258;50.376;8.742;2022-10-22T05:17:19;35.75;;;16.77;;
14348;SDS011;7258;50.376;8.742;2022-10-22T05:19:22;36.60;;;18.00;;
14348;SDS011;7258;50.376;8.742;2022-10-22T05:21:28;31.42;;;16.60;;
14348;SDS011;7258;50.376;8.742;2022-10-22T05:23:31;34.97;;;17.88;;
14348;SDS011;7258;50.376;8.742;2022-10-22T05:25:35;43.88;;;19.05;;
14348;SDS011;7258;50.376;8.742;2022-10-22T05:27:39;42.97;;;19.27;;
14348;SDS011;7258;50.376;8.742;2022-10-22T05:29:42;34.13;;;17.67;;
14348;SDS011;7258;50.376;8.742;2022-10-22T05:31:45;36.22;;;18.00;;
14348;SDS011;7258;50.376;8.742;2022-10-22T05:33:48;37.17;;;18.23;;
14348;SDS011;7258;50.376;8.742;2022-10-22T05:35:50;38.50;;;18.10;;
14348;SDS011;7258;50.376;8.742;2022-10-22T05:37:55;39.75;;;17.77;;
14348;SDS011;7258;50.376;8.742;2022-10-22T05:39:58;36.08;;;16.38;;
14348;SDS011;7258;50.376;8.742;2022-10-22T05:42:20;33.75;;;17.85;;
14348;SDS011;7258;50.376;8.742;2022-10-22T05:44:23;50.10;;;20.15;;
14348;SDS011;7258;50.376;8.742;2022-10-22T05:46:27;55.85;;;23.30;;
14348;SDS011;7258;50.376;8.742;2022-10-22T05:48:31;51.85;;;24.35;;
14348;SDS011;7258;50.376;8.742;2022-10-22T05:50:35;60.03;;;27.13;;
14348;SDS011;7258;50.376;8.742;2022-10-22T05:52:38;70.85;;;30.65;;
14348;SDS011;7258;50.376;8.742;2022-10-22T05:54:43;68.13;;;29.60;;
14348;SDS011;7258;50.376;8.742;2022-10-22T05:56:45;66.43;;;29.37;;
14348;SDS011;7258;50.376;8.742;2022-10-22T05:58:49;72.20;;;30.33;;
14348;SDS011;7258;50.376;8.742;2022-10-22T06:00:52;66.40;;;29.92;;
14348;SDS011;7258;50.376;8.742;2022-10-22T06:02:55;65.40;;;29.83;;
14348;SDS011;7258;50.376;8.742;2022-10-22T06:04:57;64.85;;;28.85;;
14348;SDS011;7258;50.376;8.742;2022-10-22T06:07:01;69.35;;;29.02;;
14348;SDS011;7258;50.376;8.742;2022-10-22T06:09:04;63.92;;;28.95;;
14348;SDS011;7258;50.376;8.742;2022-10-22T06:11:13;57.60;;;27.40;;
14348;SDS011;7258;50.376;8.742;2022-10-22T06:13:17;64.30;;;27.85;;
14348;SDS011;7258;50.376;8.742;2022-10-22T06:15:20;59.63;;;26.88;;
14348;SDS011;7258;50.376;8.742;2022-10-22T06:17:23;64.28;;;28.15;;
14348;SDS011;7258;50.376;8.742;2022-10-22T06:19:26;62.20;;;29.77;;
14348;SDS011;7258;50.376;8.742;2022-10-22T06:21:31;67.75;;;29.05;;
14348;SDS011;7258;50.376;8.742;2022-10-22T06:23:34;61.67;;;28.25;;
14348;SDS011;7258;50.376;8.742;2022-10-22T06:25:37;55.28;;;26.63;;
14348;SDS011;7258;50.376;8.742;2022-10-22T06:27:41;59.87;;;26.37;;
14348;SDS011;7258;50.376;8.742;2022-10-22T06:29:49;55.20;;;25.13;;
14348;SDS011;7258;50.376;8.742;2022-10-22T06:31:52;56.40;;;25.08;;
14348;SDS011;7258;50.376;8.742;2022-10-22T06:33:55;58.78;;;24.55;;
14348;SDS011;7258;50.376;8.742;2022-10-22T06:36:03;52.50;;;22.95;;
14348;SDS011;7258;50.376;8.742;2022-10-22T06:38:08;42.70;;;20.67;;
14348;SDS011;7258;50.376;8.742;2022-10-22T06:40:11;45.53;;;20.23;;
14348;SDS011;7258;50.376;8.742;2022-10-22T06:42:14;40.60;;;20.83;;
14348;SDS011;7258;50.376;8.742;2022-10-22T06:44:18;41.50;;;19.70;;
14348;SDS011;7258;50.376;8.742;2022-10-22T06:46:22;43.20;;;20.13;;
14348;SDS011;7258;50.376;8.742;2022-10-22T06:48:25;48.45;;;22.48;;
14348;SDS011;7258;50.376;8.742;2022-10-22T06:50:29;53.72;;;24.33;;
14348;SDS011;7258;50.376;8.742;2022-10-22T06:52:31;56.37;;;26.63;;
14348;SDS011;7258;50.376;8.742;2022-10-22T06:54:34;65.95;;;27.88;;
14348;SDS011;7258;50.376;8.742;2022-10-22T06:56:38;70.47;;;30.87;;
14348;SDS011;7258;50.376;8.742;2022-10-22T06:58:40;69.97;;;30.83;;
14348;SDS011;7258;50.376;8.742;2022-10-22T07:00:45;62.45;;;28.85;;
14348;SDS011;7258;50.376;8.742;2022-10-22T07:02:49;67.78;;;29.90;;
14348;SDS011;7258;50.376;8.742;2022-10-22T07:04:59;70.18;;;29.35;;
14348;SDS011;7258;50.376;8.742;2022-10-22T07:07:02;64.43;;;27.90;;
14348;SDS011;7258;50.376;8.742;2022-10-22T07:09:05;64.97;;;27.63;;
14348;SDS011;7258;50.376;8.742;2022-10-22T07:11:09;71.45;;;29.02;;
14348;SDS011;7258;50.376;8.742;2022-10-22T07:13:13;71.57;;;29.55;;
14348;SDS011;7258;50.376;8.742;2022-10-22T07:15:16;62.83;;;27.85;;
14348;SDS011;7258;50.376;8.742;2022-10-22T07:17:20;63.78;;;26.42;;
14348;SDS011;7258;50.376;8.742;2022-10-22T07:19:23;58.95;;;26.25;;
14348;SDS011;7258;50.376;8.742;2022-10-22T07:21:25;59.15;;;25.52;;
14348;SDS011;7258;50.376;8.742;2022-10-22T07:23:28;55.55;;;24.83;;
14348;SDS011;7258;50.376;8.742;2022-10-22T07:25:32;51.85;;;23.77;;
14348;SDS011;7258;50.376;8.742;2022-10-22T07:27:34;49.38;;;23.08;;
14348;SDS011;7258;50.376;8.742;2022-10-22T07:29:37;48.47;;;23.95;;
14348;SDS011;7258;50.376;8.742;2022-10-22T07:31:40;46.95;;;23.30;;
14348;SDS011;7258;50.376;8.742;2022-10-22T07:33:44;52.33;;;24.10;;
14348;SDS011;7258;50.376;8.742;2022-10-22T07:35:47;49.55;;;23.77;;
14348;SDS011;7258;50.376;8.742;2022-10-22T07:37:50;47.63;;;21.63;;
14348;SDS011;7258;50.376;8.742;2022-10-22T07:39:53;37.13;;;18.80;;
14348;SDS011;7258;50.376;8.742;2022-10-22T07:41:57;36.45;;;18.67;;
14348;SDS011;7258;50.376;8.742;2022-10-22T07:43:59;35.47;;;19.52;;
14348;SDS011;7258;50.376;8.742;2022-10-22T07:46:02;36.28;;;17.52;;
14348;SDS011;7258;50.376;8.742;2022-10-22T07:48:05;34.60;;;18.20;;
14348;SDS011;7258;50.376;8.742;2022-10-22T07:50:10;38.42;;;18.42;;
14348;SDS011;7258;50.376;8.742;2022-10-22T07:52:13;33.17;;;18.15;;
14348;SDS011;7258;50.376;8.742;2022-10-22T07:54:17;36.03;;;17.77;;
14348;SDS011;7258;50.376;8.742;2022-10-22T07:56:20;31.52;;;17.13;;
14348;SDS011;7258;50.376;8.742;2022-10-22T07:58:23;27.02;;;15.40;;
14348;SDS011;7258;50.376;8.742;2022-10-22T08:00:26;25.27;;;14.70;;
14348;SDS011;7258;50.376;8.742;2022-10-22T08:02:28;26.30;;;14.35;;
14348;SDS011;7258;50.376;8.742;2022-10-22T08:04:31;31.60;;;13.80;;
14348;SDS011;7258;50.376;8.742;2022-10-22T08:06:35;22.85;;;13.85;;
14348;SDS011;7258;50.376;8.742;2022-10-22T08:08:39;23.25;;;13.57;;
14348;SDS011;7258;50.376;8.742;2022-10-22T08:10:43;26.00;;;13.75;;
14348;SDS011;7258;50.376;8.742;2022-10-22T08:12:48;20.90;;;13.35;;
14348;SDS011;7258;50.376;8.742;2022-10-22T08:14:50;22.83;;;13.23;;
14348;SDS011;7258;50.376;8.742;2022-10-22T08:16:54;22.30;;;11.68;;
14348;SDS011;7258;50.376;8.742;2022-10-22T08:18:57;18.02;;;11.18;;
14348;SDS011;7258;50.376;8.742;2022-10-22T08:20:59;17.88;;;11.10;;
14348;SDS011;7258;50.376;8.742;2022-10-22T08:23:03;17.02;;;11.45;;
14348;SDS011;7258;50.376;8.742;2022-10-22T08:25:07;16.67;;;11.23;;
14348;SDS011;7258;50.376;8.742;2022-10-22T08:27:10;15.27;;;10.57;;
14348;SDS011;7258;50.376;8.742;2022-10-22T08:29:13;12.68;;;9.13;;
14348;SDS011;7258;50.376;8.742;2022-10-22T08:31:15;12.77;;;9.00;;
14348;SDS011;7258;50.376;8.742;2022-10-22T08:33:19;13.48;;;8.45;;
14348;SDS011;7258;50.376;8.742;2022-10-22T08:35:21;9.13;;;7.90;;
14348;SDS011;7258;50.376;8.742;2022-10-22T08:37:24;11.30;;;8.48;;
14348;SDS011;7258;50.376;8.742;2022-10-22T08:39:28;8.50;;;6.70;;
14348;SDS011;7258;50.376;8.742;2022-10-22T08:41:31;11.45;;;6.47;;
14348;SDS011;7258;50.376;8.742;2022-10-22T08:43:45;10.10;;;6.13;;
14348;SDS011;7258;50.376;8.742;2022-10-22T08:46:06;7.97;;;5.93;;
14348;SDS011;7258;50.376;8.742;2022-10-22T08:48:22;8.45;;;5.60;;
14348;SDS011;7258;50.376;8.742;2022-10-22T08:50:36;6.30;;;5.60;;
14348;SDS011;7258;50.376;8.742;2022-10-22T08:52:42;6.78;;;5.32;;
14348;SDS011;7258;50.376;8.742;2022-10-22T08:54:50;8.25;;;4.85;;
14348;SDS011;7258;50.376;8.742;2022-10-22T08:56:58;7.47;;;4.22;;
14348;SDS011;7258;50.376;8.742;2022-10-22T08:59:14;5.43;;;4.40;;
14348;SDS011;7258;50.376;8.742;2022-10-22T09:01:27;6.57;;;4.28;;
14348;SDS011;7258;50.376;8.742;2022-10-22T09:03:35;4.30;;;3.90;;
14348;SDS011;7258;50.376;8.742;2022-10-22T09:05:48;5.57;;;3.83;;
14348;SDS011;7258;50.376;8.742;2022-10-22T09:07:57;5.97;;;3.90;;
14348;SDS011;7258;50.376;8.742;2022-10-22T09:10:02;4.07;;;3.00;;
14348;SDS011;7258;50.376;8.742;2022-10-22T09:12:05;5.18;;;3.20;;
14348;SDS011;7258;50.376;8.742;2022-10-22T09:14:09;5.72;;;3.38;;
14348;SDS011;7258;50.376;8.742;2022-10-22T09:16:16;8.55;;;2.80;;
14348;SDS011;7258;50.376;8.742;2022-10-22T09:18:23;8.93;;;3.15;;
14348;SDS011;7258;50.376;8.742;2022-10-22T09:20:38;3.13;;;2.70;;
14348;SDS011;7258;50.376;8.742;2022-10-22T09:22:48;5.90;;;3.15;;
14348;SDS011;7258;50.376;8.742;2022-10-22T09:24:56;5.95;;;3.10;;
14348;SDS011;7258;50.376;8.742;2022-10-22T09:27:08;7.88;;;3.17;;
14348;SDS011;7258;50.376;8.742;2022-10-22T09:29:16;3.78;;;2.63;;
14348;SDS011;7258;50.376;8.742;2022-10-22T09:31:25;4.50;;;2.83;;
14348;SDS011;7258;50.376;8.742;2022-10-22T09:33:31;3.55;;;2.63;;
14348;SDS011;7258;50.376;8.742;2022-10-22T09:35:34;4.68;;;2.33;;
14348;SDS011;7258;50.376;8.742;2022-10-22T09:37:46;5.45;;;2.25;;
14348;SDS011;7258;50.376;8.742;2022-10-22T09:39:51;5.35;;;2.55;;
14348;SDS011;7258;50.376;8.742;2022-10-22T09:41:55;4.03;;;2.13;;
14348;SDS011;7258;50.376;8.742;2022-10-22T09:43:59;4.57;;;1.95;;
14348;SDS011;7258;50.376;8.742;2022-10-22T09:46:03;2.88;;;1.98;;
14348;SDS011;7258;50.376;8.742;2022-10-22T09:48:11;4.07;;;2.03;;
14348;SDS011;7258;50.376;8.742;2022-10-22T09:50:23;2.47;;;2.03;;
14348;SDS011;7258;50.376;8.742;2022-10-22T09:52:28;2.83;;;2.10;;
14348;SDS011;7258;50.376;8.742;2022-10-22T09:54:38;5.25;;;1.88;;
14348;SDS011;7258;50.376;8.742;2022-10-22T09:56:46;5.80;;;2.00;;
14348;SDS011;7258;50.376;8.742;2022-10-22T09:58:54;5.45;;;2.08;;
14348;SDS011;7258;50.376;8.742;2022-10-22T10:00:59;6.35;;;2.05;;
14348;SDS011;7258;50.376;8.742;2022-10-22T10:03:03;2.80;;;2.05;;
14348;SDS011;7258;50.376;8.742;2022-10-22T10:05:06;4.40;;;2.05;;
14348;SDS011;7258;50.376;8.742;2022-10-22T10:07:14;7.00;;;1.73;;
14348;SDS011;7258;50.376;8.742;2022-10-22T10:09:19;3.97;;;1.90;;
14348;SDS011;7258;50.376;8.742;2022-10-22T10:11:25;3.10;;;1.80;;
14348;SDS011;7258;50.376;8.742;2022-10-22T10:13:39;3.90;;;1.73;;
14348;SDS011;7258;50.376;8.742;2022-10-22T10:15:49;9.07;;;2.08;;
14348;SDS011;7258;50.376;8.742;2022-10-22T10:17:59;6.32;;;1.95;;
14348;SDS011;7258;50.376;8.742;2022-10-22T10:20:15;3.90;;;1.80;;
14348;SDS011;7258;50.376;8.742;2022-10-22T10:22:32;3.00;;;1.70;;
14348;SDS011;7258;50.376;8.742;2022-10-22T10:24:49;2.33;;;1.50;;
14348;SDS011;7258;50.376;8.742;2022-10-22T10:27:04;3.92;;;1.80;;
14348;SDS011;7258;50.376;8.742;2022-10-22T10:29:17;4.15;;;1.80;;
14348;SDS011;7258;50.376;8.742;2022-10-22T10:31:32;3.45;;;1.52;;
14348;SDS011;7258;50.376;8.742;2022-10-22T10:33:45;2.92;;;1.90;;
14348;SDS011;7258;50.376;8.742;2022-10-22T10:35:57;2.70;;;1.50;;
14348;SDS011;7258;50.376;8.742;2022-10-22T10:38:13;4.72;;;1.85;;
14348;SDS011;7258;50.376;8.742;2022-10-22T10:40:31;2.83;;;1.50;;
14348;SDS011;7258;50.376;8.742;2022-10-22T10:42:40;3.65;;;1.70;;
14348;SDS011;7258;50.376;8.742;2022-10-22T10:44:52;5.25;;;1.50;;
14348;SDS011;7258;50.376;8.742;2022-10-22T10:47:07;5.43;;;1.70;;
14348;SDS011;7258;50.376;8.742;2022-10-22T10:49:23;3.25;;;1.52;;
14348;SDS011;7258;50.376;8.742;2022-10-22T10:51:34;6.97;;;1.58;;
14348;SDS011;7258;50.376;8.742;2022-10-22T10:53:50;2.10;;;1.80;;
14348;SDS011;7258;50.376;8.742;2022-10-22T10:56:04;5.22;;;1.70;;
14348;SDS011;7258;50.376;8.742;2022-10-22T10:58:17;3.67;;;1.58;;
14348;SDS011;7258;50.376;8.742;2022-10-22T11:00:26;7.85;;;1.63;;
14348;SDS011;7258;50.376;8.742;2022-10-22T11:02:45;3.63;;;1.65;;
14348;SDS011;7258;50.376;8.742;2022-10-22T11:05:04;4.97;;;1.17;;
14348;SDS011;7258;50.376;8.742;2022-10-22T11:07:15;3.67;;;1.60;;
14348;SDS011;7258;50.376;8.742;2022-10-22T11:09:35;3.13;;;1.45;;
14348;SDS011;7258;50.376;8.742;2022-10-22T11:11:42;3.03;;;1.50;;
14348;SDS011;7258;50.376;8.742;2022-10-22T11:13:48;3.05;;;1.52;;
14348;SDS011;7258;50.376;8.742;2022-10-22T11:15:55;3.50;;;1.63;;
14348;SDS011;7258;50.376;8.742;2022-10-22T11:18:03;4.15;;;1.52;;
14348;SDS011;7258;50.376;8.742;2022-10-22T11:20:15;3.28;;;1.50;;
14348;SDS011;7258;50.376;8.742;2022-10-22T11:22:24;3.25;;;1.40;;
14348;SDS011;7258;50.376;8.742;2022-10-22T11:24:31;2.85;;;1.40;;
14348;SDS011;7258;50.376;8.742;2022-10-22T11:26:40;3.42;;;1.90;;
14348;SDS011;7258;50.376;8.742;2022-10-22T11:28:48;2.42;;;1.90;;
14348;SDS011;7258;50.376;8.742;2022-10-22T11:30:57;4.63;;;1.92;;
14348;SDS011;7258;50.376;8.742;2022-10-22T11:33:05;1.80;;;1.52;;
14348;SDS011;7258;50.376;8.742;2022-10-22T11:35:15;7.40;;;1.90;;
14348;SDS011;7258;50.376;8.742;2022-10-22T11:37:27;4.47;;;2.35;;
14348;SDS011;7258;50.376;8.742;2022-10-22T11:39:37;3.95;;;1.90;;
14348;SDS011;7258;50.376;8.742;2022-10-22T11:41:47;6.88;;;2.17;;
14348;SDS011;7258;50.376;8.742;2022-10-22T11:43:51;2.58;;;1.42;;
14348;SDS011;7258;50.376;8.742;2022-10-22T11:46:01;2.92;;;1.30;;
14348;SDS011;7258;50.376;8.742;2022-10-22T11:48:14;2.20;;;1.30;;
14348;SDS011;7258;50.376;8.742;2022-10-22T11:50:22;2.25;;;1.38;;
14348;SDS011;7258;50.376;8.742;2022-10-22T11:52:36;2.65;;;1.30;;
14348;SDS011;7258;50.376;8.742;2022-10-22T11:54:41;2.08;;;1.45;;
14348;SDS011;7258;50.376;8.742;2022-10-22T11:56:46;3.08;;;1.63;;
14348;SDS011;7258;50.376;8.742;2022-10-22T11:58:54;7.35;;;1.63;;
14348;SDS011;7258;50.376;8.742;2022-10-22T12:01:16;3.33;;;1.40;;
14348;SDS011;7258;50.376;8.742;2022-10-22T12:03:36;2.05;;;1.42;;
14348;SDS011;7258;50.376;8.742;2022-10-22T12:05:44;2.40;;;1.10;;
14348;SDS011;7258;50.376;8.742;2022-10-22T12:07:50;5.70;;;1.30;;
14348;SDS011;7258;50.376;8.742;2022-10-22T12:09:58;5.40;;;1.67;;
14348;SDS011;7258;50.376;8.742;2022-10-22T12:12:11;4.70;;;1.60;;
14348;SDS011;7258;50.376;8.742;2022-10-22T12:14:18;3.58;;;1.10;;
14348;SDS011;7258;50.376;8.742;2022-10-22T12:16:26;2.30;;;1.33;;
14348;SDS011;7258;50.376;8.742;2022-10-22T12:18:59;3.80;;;1.40;;
14348;SDS011;7258;50.376;8.742;2022-10-22T12:21:10;5.28;;;1.00;;
14348;SDS011;7258;50.376;8.742;2022-10-22T12:23:14;3.88;;;1.30;;
14348;SDS011;7258;50.376;8.742;2022-10-22T12:25:17;4.40;;;1.25;;
14348;SDS011;7258;50.376;8.742;2022-10-22T12:27:25;2.92;;;1.30;;
14348;SDS011;7258;50.376;8.742;2022-10-22T12:29:30;3.75;;;1.20;;
14348;SDS011;7258;50.376;8.742;2022-10-22T12:31:34;1.80;;;1.20;;
14348;SDS011;7258;50.376;8.742;2022-10-22T12:33:38;2.45;;;1.13;;
14348;SDS011;7258;50.376;8.742;2022-10-22T12:35:42;4.13;;;1.48;;
14348;SDS011;7258;50.376;8.742;2022-10-22T12:37:49;2.63;;;1.02;;